Time;durP1;ratioP1;P1;durP2;ratioP2;P2;SDS_P1;SDS_P2;PMS_P1;PMS_P2;Temp;Humidity;BMP_temperature;BMP_pressure;BME280_temperature;BME280_humidity;BME280_pressure;Samples;Min_cycle;Max_cycle;Signal;HPM_P1;HPM_P2
2023/08/19 00:03:51;;;;;;;5.83;4.43;;;;;;;;;;10453702;28;20083;-57
2023/08/19 00:08:51;;;;;;;4.95;4.45;;;;;;;;;;10453342;28;20024;-58
2023/08/19 00:13:52;;;;;;;5.40;4.60;;;;;;;;;;10453455;28;20021;-57
2023/08/19 00:18:52;;;;;;;4.90;4.40;;;;;;;;;;10452899;28;20489;-57
2023/08/19 00:23:53;;;;;;;4.90;4.50;;;;;;;;;;10452933;28;20457;-57
2023/08/19 00:28:54;;;;;;;5.13;4.63;;;;;;;;;;10452748;28;20061;-57
2023/08/19 00:33:54;;;;;;;5.37;4.33;;;;;;;;;;10452221;28;20033;-58
2023/08/19 00:38:54;;;;;;;6.47;4.17;;;;;;;;;;10452323;28;20810;-58
2023/08/19 00:43:55;;;;;;;4.80;4.40;;;;;;;;;;10452000;28;20437;-59
2023/08/19 00:48:57;;;;;;;6.13;4.80;;;;;;;;;;10451474;28;20060;-57
2023/08/19 00:53:57;;;;;;;6.22;4.38;;;;;;;;;;10449772;28;20040;-57
2023/08/19 00:58:58;;;;;;;4.53;4.13;;;;;;;;;;10449845;28;20384;-58
2023/08/19 01:03:58;;;;;;;5.17;4.20;;;;;;;;;;10449774;28;20021;-57
2023/08/19 01:09:01;;;;;;;6.23;3.93;;;;;;;;;;10451454;28;20549;-57
2023/08/19 01:14:36;;;;;;;4.13;3.72;;;;;;;;;;10451123;28;20033;-57
2023/08/19 01:19:39;;;;;;;4.30;3.90;;;;;;;;;;10437686;28;20064;-58
2023/08/19 01:24:40;;;;;;;4.60;3.75;;;;;;;;;;10450755;28;20044;-57
2023/08/19 01:29:41;;;;;;;4.88;4.38;;;;;;;;;;10450681;28;20447;-58
2023/08/19 01:34:42;;;;;;;4.60;4.20;;;;;;;;;;10450131;28;20025;-58
2023/08/19 01:39:44;;;;;;;4.80;4.25;;;;;;;;;;10450502;28;20027;-57
2023/08/19 01:44:45;;;;;;;4.35;3.80;;;;;;;;;;10449041;28;20037;-58
2023/08/19 01:49:48;;;;;;;4.57;4.18;;;;;;;;;;10449436;28;20488;-58
2023/08/19 01:54:48;;;;;;;5.32;4.65;;;;;;;;;;10449858;28;20485;-58
2023/08/19 01:59:51;;;;;;;4.10;3.70;;;;;;;;;;10449643;28;20025;-58
2023/08/19 02:04:51;;;;;;;4.40;4.00;;;;;;;;;;10454268;28;20025;-58
2023/08/19 02:09:51;;;;;;;4.77;3.90;;;;;;;;;;10457863;28;20036;-58
2023/08/19 02:14:52;;;;;;;5.90;3.77;;;;;;;;;;10457609;28;20469;-58
2023/08/19 02:19:52;;;;;;;4.33;3.77;;;;;;;;;;10458016;28;20025;-58
2023/08/19 02:24:53;;;;;;;3.70;3.40;;;;;;;;;;10457179;28;20021;-59
2023/08/19 02:29:53;;;;;;;3.80;3.50;;;;;;;;;;10456968;28;20033;-58
2023/08/19 02:34:54;;;;;;;4.35;3.95;;;;;;;;;;10456848;28;20446;-57
2023/08/19 02:39:54;;;;;;;4.03;3.73;;;;;;;;;;10456636;28;20063;-58
2023/08/19 02:44:55;;;;;;;4.50;4.10;;;;;;;;;;10457003;28;20033;-59
2023/08/19 02:49:55;;;;;;;4.07;3.67;;;;;;;;;;10455530;28;20041;-58
2023/08/19 02:54:55;;;;;;;4.20;3.80;;;;;;;;;;10456091;28;20438;-56
2023/08/19 02:59:56;;;;;;;4.23;3.70;;;;;;;;;;10456172;28;20065;-58
2023/08/19 03:04:56;;;;;;;3.93;3.63;;;;;;;;;;10455710;28;20029;-57
2023/08/19 03:09:56;;;;;;;3.83;3.53;;;;;;;;;;10456040;28;20056;-57
2023/08/19 03:14:57;;;;;;;3.70;3.37;;;;;;;;;;10454480;28;20329;-58
2023/08/19 03:19:57;;;;;;;3.75;3.42;;;;;;;;;;10455027;28;20372;-58
2023/08/19 03:24:58;;;;;;;4.27;3.87;;;;;;;;;;10454896;28;20071;-58
2023/08/19 03:29:58;;;;;;;4.37;3.57;;;;;;;;;;10454655;28;20043;-58
2023/08/19 03:34:59;;;;;;;3.73;3.43;;;;;;;;;;10455037;28;20454;-58
2023/08/19 03:39:59;;;;;;;3.73;3.43;;;;;;;;;;10454253;28;20025;-58
2023/08/19 03:44:59;;;;;;;4.00;3.60;;;;;;;;;;10454175;28;20116;-58
2023/08/19 03:50:00;;;;;;;3.80;3.50;;;;;;;;;;10453891;28;20056;-56
2023/08/19 03:55:00;;;;;;;3.80;3.50;;;;;;;;;;10453732;28;20025;-56
2023/08/19 04:00:00;;;;;;;3.70;3.40;;;;;;;;;;10452334;28;20108;-54
2023/08/19 04:05:05;;;;;;;3.77;3.33;;;;;;;;;;10453406;28;20025;-56
2023/08/19 04:10:06;;;;;;;4.05;3.67;;;;;;;;;;10453363;28;20463;-58
2023/08/19 04:15:08;;;;;;;3.80;3.35;;;;;;;;;;10453509;28;20037;-58
2023/08/19 04:20:09;;;;;;;3.25;3.05;;;;;;;;;;10452744;28;20017;-58
2023/08/19 04:25:10;;;;;;;4.45;3.60;;;;;;;;;;10452892;28;20025;-58
2023/08/19 04:30:11;;;;;;;3.47;3.17;;;;;;;;;;10451354;28;20048;-58
2023/08/19 04:35:11;;;;;;;3.63;3.33;;;;;;;;;;10452028;28;20805;-58
2023/08/19 04:40:12;;;;;;;3.83;3.53;;;;;;;;;;10451931;28;20029;-58
2023/08/19 04:45:12;;;;;;;4.00;3.60;;;;;;;;;;10451770;28;20087;-58
2023/08/19 04:50:12;;;;;;;4.53;3.70;;;;;;;;;;10451502;28;20123;-58
2023/08/19 04:55:14;;;;;;;3.80;3.40;;;;;;;;;;10451337;28;20116;-58
2023/08/19 05:00:15;;;;;;;4.07;3.20;;;;;;;;;;10451691;28;20025;-58
2023/08/19 05:05:15;;;;;;;3.65;3.33;;;;;;;;;;10451430;28;20025;-58
2023/08/19 05:10:16;;;;;;;3.85;3.45;;;;;;;;;;10451870;28;20052;-57
2023/08/19 05:15:16;;;;;;;4.47;3.40;;;;;;;;;;10451191;28;20048;-57
2023/08/19 05:20:17;;;;;;;3.97;3.65;;;;;;;;;;10450487;28;20482;-57
2023/08/19 05:25:17;;;;;;;3.30;3.00;;;;;;;;;;10450186;28;20373;-57
2023/08/19 05:30:18;;;;;;;3.53;3.23;;;;;;;;;;10450517;28;20465;-57
2023/08/19 05:35:18;;;;;;;4.32;3.40;;;;;;;;;;10450467;28;20017;-57
2023/08/19 05:40:18;;;;;;;3.17;2.87;;;;;;;;;;10449302;28;20052;-59
2023/08/19 05:45:19;;;;;;;3.40;3.10;;;;;;;;;;10449723;28;20154;-57
2023/08/19 05:50:21;;;;;;;4.22;3.20;;;;;;;;;;10448625;28;20057;-57
2023/08/19 05:55:21;;;;;;;3.55;3.10;;;;;;;;;;10450291;28;20037;-58
2023/08/19 06:00:22;;;;;;;3.90;3.43;;;;;;;;;;10449785;28;20040;-57
2023/08/19 06:05:22;;;;;;;4.05;3.42;;;;;;;;;;10450546;28;20021;-58
2023/08/19 06:10:23;;;;;;;4.37;3.20;;;;;;;;;;10450083;28;20033;-64
2023/08/19 06:15:23;;;;;;;6.03;3.60;;;;;;;;;;10449216;28;20037;-59
2023/08/19 06:20:24;;;;;;;3.58;3.28;;;;;;;;;;10449848;28;20040;-56
2023/08/19 06:25:24;;;;;;;3.70;3.40;;;;;;;;;;10449604;28;20086;-59
2023/08/19 06:30:25;;;;;;;4.63;3.47;;;;;;;;;;10449149;28;20028;-59
2023/08/19 06:35:26;;;;;;;3.53;3.22;;;;;;;;;;10449054;28;20057;-59
2023/08/19 06:40:27;;;;;;;4.97;3.35;;;;;;;;;;10448832;28;20178;-60
2023/08/19 06:45:28;;;;;;;3.45;3.15;;;;;;;;;;10447616;28;20025;-58
2023/08/19 06:50:28;;;;;;;6.28;4.63;;;;;;;;;;10450106;28;20553;-58
2023/08/19 06:55:29;;;;;;;5.95;4.75;;;;;;;;;;10455452;28;20033;-58
2023/08/19 07:00:31;;;;;;;5.80;5.30;;;;;;;;;;10456459;28;20025;-58
2023/08/19 07:05:32;;;;;;;6.18;5.57;;;;;;;;;;10454874;28;20025;-58
2023/08/19 07:10:33;;;;;;;7.15;5.07;;;;;;;;;;10454279;28;20021;-58
2023/08/19 07:15:33;;;;;;;6.22;5.25;;;;;;;;;;10455509;28;20091;-58
2023/08/19 07:20:34;;;;;;;5.55;5.00;;;;;;;;;;10455565;28;20050;-58
2023/08/19 07:25:34;;;;;;;6.93;5.90;;;;;;;;;;10453450;28;20468;-58
2023/08/19 07:30:35;;;;;;;7.18;6.10;;;;;;;;;;10453283;28;20101;-59
2023/08/19 07:35:35;;;;;;;9.93;6.28;;;;;;;;;;10452361;28;20376;-58
2023/08/19 07:40:36;;;;;;;6.18;5.65;;;;;;;;;;10452211;28;20472;-58
2023/08/19 07:45:37;;;;;;;9.77;5.95;;;;;;;;;;10453872;28;20029;-58
2023/08/19 07:50:37;;;;;;;7.67;5.93;;;;;;;;;;10454750;28;20032;-58
2023/08/19 07:55:37;;;;;;;6.30;5.67;;;;;;;;;;10454159;28;20480;-58
2023/08/19 08:00:38;;;;;;;6.53;5.13;;;;;;;;;;10453598;28;20513;-58
2023/08/19 08:05:38;;;;;;;6.97;5.90;;;;;;;;;;10454021;28;20032;-58
2023/08/19 08:10:40;;;;;;;7.07;5.50;;;;;;;;;;10453246;28;20032;-58
2023/08/19 08:15:40;;;;;;;7.43;4.95;;;;;;;;;;10452974;28;20036;-58
2023/08/19 08:20:41;;;;;;;7.40;4.50;;;;;;;;;;10453093;28;20044;-58
2023/08/19 08:25:41;;;;;;;6.47;5.13;;;;;;;;;;10453285;28;20150;-58
2023/08/19 08:30:41;;;;;;;6.70;5.17;;;;;;;;;;10453218;28;20461;-57
2023/08/19 08:35:42;;;;;;;4.73;4.33;;;;;;;;;;10452306;28;20480;-58
2023/08/19 08:40:42;;;;;;;5.50;5.00;;;;;;;;;;10452736;28;20380;-58
2023/08/19 08:45:43;;;;;;;5.23;4.53;;;;;;;;;;10452746;28;20467;-58
2023/08/19 08:50:44;;;;;;;6.18;4.93;;;;;;;;;;10450686;28;20442;-57
2023/08/19 08:55:44;;;;;;;5.03;4.63;;;;;;;;;;10450415;28;20025;-57
2023/08/19 09:00:45;;;;;;;5.60;4.97;;;;;;;;;;10450765;28;20029;-57
2023/08/19 09:05:48;;;;;;;5.10;4.70;;;;;;;;;;10449957;28;20021;-57
2023/08/19 09:10:49;;;;;;;4.97;4.47;;;;;;;;;;10450932;28;20169;-57
2023/08/19 09:15:49;;;;;;;4.78;4.28;;;;;;;;;;10449333;28;20158;-57
2023/08/19 09:20:50;;;;;;;4.97;4.43;;;;;;;;;;10450747;28;20385;-57
2023/08/19 09:25:50;;;;;;;5.05;4.55;;;;;;;;;;10449379;28;20028;-57
2023/08/19 09:30:52;;;;;;;7.50;5.00;;;;;;;;;;10450461;28;20558;-57
2023/08/19 09:35:57;;;;;;;7.03;4.28;;;;;;;;;;10450667;28;20033;-57
2023/08/19 09:41:03;;;;;;;4.45;4.05;;;;;;;;;;10449921;28;20074;-57
2023/08/19 09:46:03;;;;;;;4.57;4.18;;;;;;;;;;10450173;28;20041;-57
2023/08/19 09:51:03;;;;;;;4.80;4.30;;;;;;;;;;10449878;28;20033;-57
2023/08/19 09:56:04;;;;;;;6.93;4.30;;;;;;;;;;10449599;28;20234;-58
2023/08/19 10:01:04;;;;;;;4.80;4.20;;;;;;;;;;10449620;28;20123;-57
2023/08/19 10:06:05;;;;;;;5.30;4.17;;;;;;;;;;10449428;28;20074;-62
2023/08/19 10:11:06;;;;;;;5.07;4.47;;;;;;;;;;10448232;28;20071;-57
2023/08/19 10:16:06;;;;;;;4.70;4.25;;;;;;;;;;10449279;28;20017;-57
2023/08/19 10:21:08;;;;;;;5.17;4.27;;;;;;;;;;10449423;28;20478;-57
2023/08/19 10:26:09;;;;;;;4.60;3.95;;;;;;;;;;10455125;28;20112;-57
2023/08/19 10:31:12;;;;;;;5.83;4.10;;;;;;;;;;10456161;28;20487;-58
2023/08/19 10:36:20;;;;;;;4.57;4.18;;;;;;;;;;10457002;28;20017;-57
2023/08/19 10:41:29;;;;;;;4.70;3.97;;;;;;;;;;10457447;28;20029;-58
2023/08/19 10:46:33;;;;;;;4.30;3.90;;;;;;;;;;10456739;28;20056;-57
2023/08/19 10:51:57;;;;;;;4.18;3.80;;;;;;;;;;10457062;28;20052;-58
2023/08/19 10:57:07;;;;;;;4.38;3.97;;;;;;;;;;10456645;28;20103;-57
2023/08/19 11:02:08;;;;;;;4.55;3.83;;;;;;;;;;10456135;28;20116;-57
2023/08/19 11:07:09;;;;;;;5.07;4.07;;;;;;;;;;10455893;28;20025;-57
2023/08/19 11:12:19;;;;;;;3.58;3.28;;;;;;;;;;10455857;28;20453;-57
2023/08/19 11:17:27;;;;;;;4.50;3.60;;;;;;;;;;10455426;28;20029;-57
2023/08/19 11:22:27;;;;;;;4.18;3.78;;;;;;;;;;10455418;28;20021;-58
2023/08/19 11:27:29;;;;;;;3.90;3.53;;;;;;;;;;10455223;28;20087;-58
2023/08/19 11:32:29;;;;;;;4.22;3.53;;;;;;;;;;10456033;28;20446;-58
2023/08/19 11:37:30;;;;;;;4.90;4.13;;;;;;;;;;10454096;28;20104;-58
2023/08/19 11:42:31;;;;;;;4.07;3.58;;;;;;;;;;10455119;28;20025;-58
2023/08/19 11:47:33;;;;;;;5.33;4.00;;;;;;;;;;10454245;28;20048;-58
2023/08/19 11:52:34;;;;;;;3.90;3.60;;;;;;;;;;10454252;28;20033;-58
2023/08/19 11:57:35;;;;;;;4.87;3.77;;;;;;;;;;10454014;28;20029;-58
2023/08/19 12:02:36;;;;;;;3.85;3.53;;;;;;;;;;10454392;28;20108;-60
2023/08/19 12:07:36;;;;;;;4.07;3.67;;;;;;;;;;10454108;28;20047;-58
2023/08/19 12:12:36;;;;;;;4.27;3.93;;;;;;;;;;10452211;28;20031;-58
2023/08/19 12:17:37;;;;;;;4.03;3.67;;;;;;;;;;10453349;28;20040;-58
2023/08/19 12:22:37;;;;;;;3.67;3.30;;;;;;;;;;10453257;28;20331;-58
2023/08/19 12:27:37;;;;;;;4.27;3.87;;;;;;;;;;10452741;28;20037;-58
2023/08/19 12:32:38;;;;;;;4.33;3.57;;;;;;;;;;10453268;28;20025;-58
2023/08/19 12:37:38;;;;;;;4.82;3.63;;;;;;;;;;10453033;28;20029;-58
2023/08/19 12:42:39;;;;;;;7.43;3.93;;;;;;;;;;10452218;28;20052;-58
2023/08/19 12:47:40;;;;;;;3.60;3.30;;;;;;;;;;10451206;28;20557;-57
2023/08/19 12:52:41;;;;;;;4.03;3.67;;;;;;;;;;10452468;28;20029;-57
2023/08/19 12:57:43;;;;;;;4.20;3.80;;;;;;;;;;10451612;28;20415;-58
2023/08/19 13:02:43;;;;;;;4.13;3.60;;;;;;;;;;10450119;28;20495;-57
2023/08/19 13:07:45;;;;;;;4.40;3.97;;;;;;;;;;10452024;28;20025;-57
2023/08/19 13:12:47;;;;;;;6.47;3.42;;;;;;;;;;10451465;28;20033;-57
2023/08/19 13:17:48;;;;;;;3.95;3.65;;;;;;;;;;10450600;28;20403;-57
2023/08/19 13:22:49;;;;;;;4.13;3.73;;;;;;;;;;10451070;28;20025;-58
2023/08/19 13:27:49;;;;;;;3.65;3.35;;;;;;;;;;10450874;28;20512;-56
2023/08/19 13:32:49;;;;;;;4.07;3.67;;;;;;;;;;10450458;28;20108;-55
2023/08/19 13:37:50;;;;;;;5.17;3.60;;;;;;;;;;10450750;28;20021;-55
2023/08/19 13:42:50;;;;;;;4.13;3.83;;;;;;;;;;10450197;28;20460;-57
2023/08/19 13:47:50;;;;;;;17.10;5.70;;;;;;;;;;10450307;28;20558;-55
2023/08/19 13:52:51;;;;;;;14.83;4.93;;;;;;;;;;10450587;28;20259;-52
2023/08/19 13:57:53;;;;;;;12.60;4.90;;;;;;;;;;10448947;28;20025;-54
2023/08/19 14:02:53;;;;;;;18.10;4.97;;;;;;;;;;10449516;28;20108;-52
2023/08/19 14:07:54;;;;;;;10.80;5.00;;;;;;;;;;10449150;28;20057;-49
2023/08/19 14:12:54;;;;;;;13.85;5.72;;;;;;;;;;10449535;28;21173;-56
2023/08/19 14:17:55;;;;;;;13.35;4.38;;;;;;;;;;10449127;28;20017;-54
2023/08/19 14:22:56;;;;;;;14.77;5.25;;;;;;;;;;10449009;28;20034;-56
2023/08/19 14:27:56;;;;;;;7.57;4.55;;;;;;;;;;10448570;28;20035;-53
2023/08/19 14:32:57;;;;;;;9.23;4.57;;;;;;;;;;10448832;28;20032;-54
2023/08/19 14:37:58;;;;;;;8.75;4.70;;;;;;;;;;10448368;28;20442;-55
2023/08/19 14:42:58;;;;;;;5.25;3.80;;;;;;;;;;10448445;28;20048;-57
2023/08/19 14:47:59;;;;;;;6.53;4.53;;;;;;;;;;10448058;28;20073;-53
2023/08/19 14:52:59;;;;;;;12.30;4.80;;;;;;;;;;10448850;28;20037;-55
2023/08/19 14:58:00;;;;;;;8.23;4.67;;;;;;;;;;10448680;28;20052;-54
2023/08/19 15:03:00;;;;;;;10.35;4.75;;;;;;;;;;10447526;28;21072;-54
2023/08/19 15:08:00;;;;;;;10.63;4.07;;;;;;;;;;10447573;28;20024;-55
2023/08/19 15:13:01;;;;;;;7.17;4.23;;;;;;;;;;10452962;28;20038;-53
2023/08/19 15:18:02;;;;;;;6.95;3.63;;;;;;;;;;10455998;28;20028;-55
2023/08/19 15:23:03;;;;;;;5.97;4.15;;;;;;;;;;10455442;28;20024;-51
2023/08/19 15:28:03;;;;;;;5.32;4.25;;;;;;;;;;10455455;28;20032;-53
2023/08/19 15:33:04;;;;;;;7.68;4.20;;;;;;;;;;10454998;28;20017;-54
2023/08/19 15:38:04;;;;;;;6.70;3.97;;;;;;;;;;10454860;28;20021;-51
2023/08/19 15:43:05;;;;;;;5.73;4.40;;;;;;;;;;10454630;28;20465;-51
2023/08/19 15:48:05;;;;;;;6.55;4.15;;;;;;;;;;10454068;28;20380;-52
2023/08/19 15:53:06;;;;;;;9.35;4.22;;;;;;;;;;10454313;28;20032;-54
2023/08/19 15:58:06;;;;;;;6.97;3.70;;;;;;;;;;10453833;28;20396;-51
2023/08/19 16:03:06;;;;;;;5.03;3.60;;;;;;;;;;10453877;28;20103;-51
2023/08/19 16:08:07;;;;;;;4.70;3.67;;;;;;;;;;10453147;28;20040;-50
2023/08/19 16:13:07;;;;;;;4.90;3.33;;;;;;;;;;10453272;28;20035;-53
2023/08/19 16:18:08;;;;;;;4.97;3.87;;;;;;;;;;10453303;28;20032;-49
2023/08/19 16:23:08;;;;;;;5.17;3.97;;;;;;;;;;10452899;28;20098;-54
2023/08/19 16:28:09;;;;;;;6.53;3.70;;;;;;;;;;10452821;28;20120;-55
2023/08/19 16:33:10;;;;;;;6.88;4.07;;;;;;;;;;10452141;28;20036;-56
2023/08/19 16:38:10;;;;;;;7.87;3.57;;;;;;;;;;10451756;28;20065;-57
2023/08/19 16:43:10;;;;;;;5.80;3.70;;;;;;;;;;10453203;28;20047;-52
2023/08/19 16:48:11;;;;;;;8.63;4.03;;;;;;;;;;10451666;28;20470;-54
2023/08/19 16:53:11;;;;;;;5.27;3.83;;;;;;;;;;10452392;28;20024;-50
2023/08/19 16:58:11;;;;;;;7.27;3.83;;;;;;;;;;10451978;28;21022;-57
2023/08/19 17:03:12;;;;;;;7.82;4.70;;;;;;;;;;10452524;28;20048;-57
2023/08/19 17:08:12;;;;;;;6.00;3.47;;;;;;;;;;10451688;28;20029;-56
2023/08/19 17:13:13;;;;;;;7.33;4.00;;;;;;;;;;10451035;28;20025;-56
2023/08/19 17:18:13;;;;;;;4.60;3.85;;;;;;;;;;10450869;28;20039;-58
2023/08/19 17:23:13;;;;;;;4.33;3.83;;;;;;;;;;10451172;28;20028;-57
2023/08/19 17:28:14;;;;;;;5.53;4.03;;;;;;;;;;10450899;28;20984;-56
2023/08/19 17:33:14;;;;;;;7.97;4.10;;;;;;;;;;10449040;28;20029;-56
2023/08/19 17:38:15;;;;;;;4.93;3.63;;;;;;;;;;10450432;28;20441;-56
2023/08/19 17:43:15;;;;;;;3.67;3.33;;;;;;;;;;10450024;28;20439;-57
2023/08/19 17:48:15;;;;;;;4.93;3.53;;;;;;;;;;10449943;28;20135;-57
2023/08/19 17:53:16;;;;;;;4.37;2.97;;;;;;;;;;10450004;28;20033;-57
2023/08/19 17:58:17;;;;;;;3.90;3.50;;;;;;;;;;10449731;28;20102;-56
2023/08/19 18:03:17;;;;;;;5.63;3.73;;;;;;;;;;10449746;28;20186;-57
2023/08/19 18:08:19;;;;;;;4.13;3.20;;;;;;;;;;10450035;28;20036;-57
2023/08/19 18:13:19;;;;;;;3.40;3.10;;;;;;;;;;10449446;28;20438;-57
2023/08/19 18:18:20;;;;;;;5.53;3.20;;;;;;;;;;10449973;28;20025;-57
2023/08/19 18:23:20;;;;;;;3.80;3.50;;;;;;;;;;10448170;28;20458;-57
2023/08/19 18:28:20;;;;;;;6.00;3.60;;;;;;;;;;10448968;28;20028;-56
2023/08/19 18:33:21;;;;;;;4.10;3.70;;;;;;;;;;10449619;28;20124;-57
2023/08/19 18:38:22;;;;;;;3.92;3.30;;;;;;;;;;10448957;28;20029;-57
2023/08/19 18:43:22;;;;;;;4.50;3.63;;;;;;;;;;10448913;28;20018;-57
2023/08/19 18:48:23;;;;;;;4.90;3.40;;;;;;;;;;10453926;28;20056;-58
2023/08/19 18:53:23;;;;;;;3.67;3.20;;;;;;;;;;10457108;28;20056;-57
2023/08/19 18:58:24;;;;;;;4.63;3.70;;;;;;;;;;10456401;28;20032;-58
2023/08/19 19:03:25;;;;;;;3.90;3.35;;;;;;;;;;10456295;28;20063;-57
2023/08/19 19:08:25;;;;;;;5.37;3.50;;;;;;;;;;10456210;28;20154;-60
2023/08/19 19:13:25;;;;;;;4.43;3.43;;;;;;;;;;10456397;28;20120;-57
2023/08/19 19:18:26;;;;;;;4.53;3.90;;;;;;;;;;10455557;28;20036;-58
2023/08/19 19:23:26;;;;;;;3.70;3.33;;;;;;;;;;10455600;28;20025;-57
2023/08/19 19:28:26;;;;;;;4.03;3.33;;;;;;;;;;10455822;28;20079;-58
2023/08/19 19:33:27;;;;;;;4.30;3.80;;;;;;;;;;10455368;28;20029;-58
2023/08/19 19:38:27;;;;;;;3.80;3.50;;;;;;;;;;10454796;28;20162;-56
2023/08/19 19:43:27;;;;;;;4.13;3.50;;;;;;;;;;10454825;28;20036;-57
2023/08/19 19:48:28;;;;;;;5.57;3.50;;;;;;;;;;10455015;28;20052;-57
2023/08/19 19:53:28;;;;;;;3.70;3.40;;;;;;;;;;10454923;28;20120;-57
2023/08/19 19:58:29;;;;;;;3.63;3.33;;;;;;;;;;10454185;28;20029;-57
2023/08/19 20:03:29;;;;;;;4.03;3.60;;;;;;;;;;10454496;28;20025;-58
2023/08/19 20:08:31;;;;;;;3.80;3.20;;;;;;;;;;10454299;28;20025;-57
2023/08/19 20:13:31;;;;;;;3.78;3.42;;;;;;;;;;10452117;28;20770;-58
2023/08/19 20:18:31;;;;;;;4.43;3.33;;;;;;;;;;10451943;28;20028;-58
2023/08/19 20:23:32;;;;;;;6.17;3.60;;;;;;;;;;10452059;28;20036;-48
2023/08/19 20:28:34;;;;;;;8.63;3.73;;;;;;;;;;10451249;28;20029;-54
2023/08/19 20:33:34;;;;;;;4.53;3.50;;;;;;;;;;10452955;28;20450;-54
2023/08/19 20:38:34;;;;;;;23.27;3.30;;;;;;;;;;10451335;28;20029;-45
2023/08/19 20:43:35;;;;;;;5.20;3.33;;;;;;;;;;10452108;28;20590;-46
2023/08/19 20:48:35;;;;;;;11.65;3.58;;;;;;;;;;10451318;28;20478;-51
2023/08/19 20:53:36;;;;;;;4.30;3.83;;;;;;;;;;10451788;28;20033;-54
2023/08/19 20:58:36;;;;;;;6.77;3.77;;;;;;;;;;10449853;28;20380;-47
2023/08/19 21:03:36;;;;;;;5.03;3.20;;;;;;;;;;10451542;28;20427;-51
2023/08/19 21:08:37;;;;;;;5.47;3.80;;;;;;;;;;10450380;28;20115;-47
2023/08/19 21:13:37;;;;;;;11.07;4.10;;;;;;;;;;10450994;28;20268;-52
2023/08/19 21:18:38;;;;;;;16.13;4.18;;;;;;;;;;10449377;28;20100;-50
2023/08/19 21:23:38;;;;;;;22.57;4.00;;;;;;;;;;10450468;28;20051;-51
2023/08/19 21:28:39;;;;;;;29.10;4.55;;;;;;;;;;10450825;28;20469;-50
2023/08/19 21:33:39;;;;;;;10.30;3.83;;;;;;;;;;10449600;28;20033;-54
2023/08/19 21:38:39;;;;;;;7.77;3.33;;;;;;;;;;10450101;28;20112;-55
2023/08/19 21:43:40;;;;;;;10.33;3.97;;;;;;;;;;10450097;28;20171;-54
2023/08/19 21:48:40;;;;;;;7.20;3.63;;;;;;;;;;10449391;28;20055;-53
2023/08/19 21:53:41;;;;;;;7.10;3.80;;;;;;;;;;10449577;28;20167;-55
2023/08/19 21:58:41;;;;;;;8.85;3.30;;;;;;;;;;10449512;28;20029;-48
2023/08/19 22:03:42;;;;;;;25.40;4.23;;;;;;;;;;10448221;28;20121;-47
2023/08/19 22:08:42;;;;;;;11.93;3.50;;;;;;;;;;10449507;28;20565;-51
2023/08/19 22:13:42;;;;;;;5.73;3.67;;;;;;;;;;10448738;28;20029;-48
2023/08/19 22:18:43;;;;;;;4.93;3.33;;;;;;;;;;10449300;28;20063;-49
2023/08/19 22:23:43;;;;;;;9.67;3.37;;;;;;;;;;10457146;28;20028;-48
2023/08/19 22:28:44;;;;;;;5.90;3.43;;;;;;;;;;10457968;28;20021;-52
2023/08/19 22:33:46;;;;;;;3.60;3.23;;;;;;;;;;10457401;28;20384;-49
2023/08/19 22:38:46;;;;;;;5.13;3.60;;;;;;;;;;10457049;28;20032;-55
2023/08/19 22:43:47;;;;;;;8.87;3.40;;;;;;;;;;10456969;28;20021;-53
2023/08/19 22:48:47;;;;;;;4.07;3.03;;;;;;;;;;10456528;28;20080;-56
2023/08/19 22:53:47;;;;;;;3.70;3.10;;;;;;;;;;10456421;28;20083;-60
2023/08/19 22:58:49;;;;;;;5.77;3.53;;;;;;;;;;10455802;28;20028;-50
2023/08/19 23:03:50;;;;;;;7.18;3.25;;;;;;;;;;10455632;28;20071;-53
2023/08/19 23:08:50;;;;;;;8.00;3.47;;;;;;;;;;10455494;28;20492;-55
2023/08/19 23:13:50;;;;;;;4.53;3.30;;;;;;;;;;10455855;28;20123;-59
2023/08/19 23:18:51;;;;;;;4.03;2.80;;;;;;;;;;10455748;28;20103;-59
2023/08/19 23:23:51;;;;;;;5.57;3.33;;;;;;;;;;10455363;28;20053;-59
2023/08/19 23:28:51;;;;;;;5.90;2.87;;;;;;;;;;10455046;28;20078;-59
2023/08/19 23:33:52;;;;;;;3.43;2.90;;;;;;;;;;10453693;28;20121;-55
2023/08/19 23:38:52;;;;;;;3.63;2.90;;;;;;;;;;10454883;28;20025;-56
2023/08/19 23:43:52;;;;;;;3.93;2.83;;;;;;;;;;10454621;28;20132;-57
2023/08/19 23:48:53;;;;;;;3.20;2.90;;;;;;;;;;10453982;28;20071;-49
2023/08/19 23:53:56;;;;;;;4.35;3.13;;;;;;;;;;10453866;28;20036;-55
2023/08/19 23:58:57;;;;;;;3.00;2.80;;;;;;;;;;10454013;28;20472;-55
